Pagrindinis puslapis
METAR-TAF:

METAR-TAF

Oro uostai :

Ušuaja, Argentina

platuma: 54-48S, ilguma: 068-19W, Aukštis: 16 m

Dabartinis oras

Ataskaita buvo paskelbta 46 minutes, ne 10:00 UTC
Vėjas 4 kt iš Šiaurės/Šiaurės Vakarų
Temperatūra -2°C
Drėgmė 93%
Slėgis 1017 hPa
Matomumas 10 km arba daugiau
Su prošvaistėmis ne aukštis 1800 ft
Liūtis kaimynystėje

METAR: SAWH 151000Z 34004KT 9999 VCSH BKN018 M02/M03 Q1017

Laikas: 07:46 (10:46 UTC)

Prognozė

Ataskaita buvo paskelbta 5 valandos ir 46 minutes, ne 05:00 UTC
Prognozė galioja nuo 15 metu 06 UTC su 16 metu 06 UTC
Vėjas 5 kt nuo kintamojo kryptimis
Matomumas 10 km arba daugiau
Su prošvaistėmis ne aukštis 3000 ft
Tikimybė 30% :
Laikinai
nuo 15 metu 08 UTC su 15 metu 12 UTC
Matomumas: 2000 m
rūkana
Tapsmas
nuo 15 metu 10 UTC su 15 metu 12 UTC
Išsisklaidę debesys ne aukštis 3000 ft

TAF: SAWH 150500Z 1506/1606 VRB05KT 9999 BKN030 TX00/1518Z TNM03/1512Z PROB30 TEMPO 1508/1512 2000 BR BECMG 1510/1512 SCT030

Orai ataskaitas ir orų prognozės (METAR, TAF).

turimą stotys yra geltonos ir raudonos taškus žemėlapyje.

Perkelti pele per norėdami pamatyti stoties vardą.

Tada spustelėkite, norėdami matyti oro stebėjimo ir prognozės.

Norėdami pakeisti žemėlapį: spustelėkite ant žalios mygtukų su juodo kryžiaus žemyn,; žalią mygtuką su brūkšneliu, jei norite nutolinti; arba žalių rodyklių gretimoms žemėlapius.


METAR-TAF: